Terminal Aerodrome Forecast
Issued by NWS

Home | Current Version | Previous Version | Text Only | Print | Product List | Glossary On
Versions: 1 2 3 4 5 6 7 8 9 10 11 12 13 14 15 16 17 18 19 20 21 22 23 24 25 26 27 28 29 30 31 32 33 34 35 36 37 38 39 40 41 42 43 44 45 46
000
FTUS45 KGJT 010520
TAFDRO
TAF
KDRO 010520Z 0106/0206 36005KT P6SM SKC
     FM010900 02004KT P6SM SCT150
     FM011500 VRB04KT P6SM FEW120 BKN200
     FM011800 26010G15KT P6SM VCSH SCT090 BKN150
     FM020200 34005KT P6SM FEW090=

USA.gov is the U.S. government's official web portal to all federal, state and local government web resources and services.